sensor_id;sensor_type;location;lat;lon;timestamp;temperature;humidity
60868;DHT22;46702;48.370;10.794;2023-03-13T00:03:43;6.20;99.90
60868;DHT22;46702;48.370;10.794;2023-03-13T00:06:09;6.20;99.90
60868;DHT22;46702;48.370;10.794;2023-03-13T00:08:35;6.10;99.90
60868;DHT22;46702;48.370;10.794;2023-03-13T00:11:05;6.10;99.90
60868;DHT22;46702;48.370;10.794;2023-03-13T00:13:31;6.00;99.90
60868;DHT22;46702;48.370;10.794;2023-03-13T00:16:08;6.00;99.90
60868;DHT22;46702;48.370;10.794;2023-03-13T00:18:35;6.00;99.90
60868;DHT22;46702;48.370;10.794;2023-03-13T00:21:10;5.90;99.90
60868;DHT22;46702;48.370;10.794;2023-03-13T00:23:36;5.90;99.90
60868;DHT22;46702;48.370;10.794;2023-03-13T00:26:05;5.90;99.90
60868;DHT22;46702;48.370;10.794;2023-03-13T00:28:33;5.80;99.90
60868;DHT22;46702;48.370;10.794;2023-03-13T00:31:08;5.80;99.90
60868;DHT22;46702;48.370;10.794;2023-03-13T00:33:39;5.80;99.90
60868;DHT22;46702;48.370;10.794;2023-03-13T00:36:07;5.90;99.90
60868;DHT22;46702;48.370;10.794;2023-03-13T00:38:33;5.80;99.90
60868;DHT22;46702;48.370;10.794;2023-03-13T00:41:04;5.80;99.90
60868;DHT22;46702;48.370;10.794;2023-03-13T00:43:31;5.70;99.90
60868;DHT22;46702;48.370;10.794;2023-03-13T00:45:57;5.70;99.90
60868;DHT22;46702;48.370;10.794;2023-03-13T00:48:23;5.70;99.90
60868;DHT22;46702;48.370;10.794;2023-03-13T00:50:49;5.70;99.90
60868;DHT22;46702;48.370;10.794;2023-03-13T00:53:15;5.70;99.90
60868;DHT22;46702;48.370;10.794;2023-03-13T00:55:58;5.70;99.90
60868;DHT22;46702;48.370;10.794;2023-03-13T00:58:26;5.70;99.90
60868;DHT22;46702;48.370;10.794;2023-03-13T01:00:52;5.70;99.90
60868;DHT22;46702;48.370;10.794;2023-03-13T01:03:19;5.70;99.90
60868;DHT22;46702;48.370;10.794;2023-03-13T01:05:57;5.70;99.90
60868;DHT22;46702;48.370;10.794;2023-03-13T01:08:23;5.60;99.90
60868;DHT22;46702;48.370;10.794;2023-03-13T01:10:49;5.60;99.90
60868;DHT22;46702;48.370;10.794;2023-03-13T01:13:15;5.60;99.90
60868;DHT22;46702;48.370;10.794;2023-03-13T01:15:40;5.60;99.90
60868;DHT22;46702;48.370;10.794;2023-03-13T01:18:06;5.60;99.90
60868;DHT22;46702;48.370;10.794;2023-03-13T01:20:32;5.60;99.90
60868;DHT22;46702;48.370;10.794;2023-03-13T01:22:57;5.60;99.90
60868;DHT22;46702;48.370;10.794;2023-03-13T01:25:23;5.60;99.90
60868;DHT22;46702;48.370;10.794;2023-03-13T01:27:48;5.60;99.90
60868;DHT22;46702;48.370;10.794;2023-03-13T01:30:14;5.60;99.90
60868;DHT22;46702;48.370;10.794;2023-03-13T01:32:40;5.60;99.90
60868;DHT22;46702;48.370;10.794;2023-03-13T01:35:05;5.60;99.90
60868;DHT22;46702;48.370;10.794;2023-03-13T01:37:32;5.60;99.90
60868;DHT22;46702;48.370;10.794;2023-03-13T01:39:58;5.60;99.90
60868;DHT22;46702;48.370;10.794;2023-03-13T01:42:23;5.60;99.90
60868;DHT22;46702;48.370;10.794;2023-03-13T01:44:51;5.60;99.90
60868;DHT22;46702;48.370;10.794;2023-03-13T01:47:17;5.60;99.90
60868;DHT22;46702;48.370;10.794;2023-03-13T01:49:42;5.60;99.90
60868;DHT22;46702;48.370;10.794;2023-03-13T01:52:15;5.60;99.90
60868;DHT22;46702;48.370;10.794;2023-03-13T01:54:51;5.70;99.90
60868;DHT22;46702;48.370;10.794;2023-03-13T01:57:24;5.70;99.90
60868;DHT22;46702;48.370;10.794;2023-03-13T02:00:12;5.70;99.90
60868;DHT22;46702;48.370;10.794;2023-03-13T02:02:49;5.60;99.90
60868;DHT22;46702;48.370;10.794;2023-03-13T02:05:18;5.50;99.90
60868;DHT22;46702;48.370;10.794;2023-03-13T02:07:48;5.50;99.90
60868;DHT22;46702;48.370;10.794;2023-03-13T02:10:16;5.40;99.90
60868;DHT22;46702;48.370;10.794;2023-03-13T02:12:42;5.40;99.90
60868;DHT22;46702;48.370;10.794;2023-03-13T02:15:14;5.50;99.90
60868;DHT22;46702;48.370;10.794;2023-03-13T02:17:41;5.50;99.90
60868;DHT22;46702;48.370;10.794;2023-03-13T02:20:08;5.40;99.90
60868;DHT22;46702;48.370;10.794;2023-03-13T02:30:15;5.60;99.90
60868;DHT22;46702;48.370;10.794;2023-03-13T02:32:42;5.60;99.90
60868;DHT22;46702;48.370;10.794;2023-03-13T02:35:11;5.60;99.90
60868;DHT22;46702;48.370;10.794;2023-03-13T02:37:38;5.70;99.90
60868;DHT22;46702;48.370;10.794;2023-03-13T02:40:09;5.70;99.90
60868;DHT22;46702;48.370;10.794;2023-03-13T02:42:38;5.70;99.90
60868;DHT22;46702;48.370;10.794;2023-03-13T02:45:05;5.70;99.90
60868;DHT22;46702;48.370;10.794;2023-03-13T02:47:31;5.70;99.90
60868;DHT22;46702;48.370;10.794;2023-03-13T02:49:56;5.70;99.90
60868;DHT22;46702;48.370;10.794;2023-03-13T02:52:35;5.70;99.90
60868;DHT22;46702;48.370;10.794;2023-03-13T02:55:25;5.80;99.90
60868;DHT22;46702;48.370;10.794;2023-03-13T02:57:52;5.80;99.90
60868;DHT22;46702;48.370;10.794;2023-03-13T03:00:18;5.80;99.90
60868;DHT22;46702;48.370;10.794;2023-03-13T03:02:44;5.80;99.90
60868;DHT22;46702;48.370;10.794;2023-03-13T03:05:11;5.80;99.90
60868;DHT22;46702;48.370;10.794;2023-03-13T03:07:37;5.80;99.90
60868;DHT22;46702;48.370;10.794;2023-03-13T03:10:02;5.80;99.90
60868;DHT22;46702;48.370;10.794;2023-03-13T03:12:28;5.80;99.90
60868;DHT22;46702;48.370;10.794;2023-03-13T03:14:54;5.80;99.90
60868;DHT22;46702;48.370;10.794;2023-03-13T03:17:20;5.80;99.90
60868;DHT22;46702;48.370;10.794;2023-03-13T03:19:45;5.80;99.90
60868;DHT22;46702;48.370;10.794;2023-03-13T03:22:11;5.80;99.90
60868;DHT22;46702;48.370;10.794;2023-03-13T03:24:36;5.80;99.90
60868;DHT22;46702;48.370;10.794;2023-03-13T03:27:02;5.80;99.90
60868;DHT22;46702;48.370;10.794;2023-03-13T03:29:28;5.80;99.90
60868;DHT22;46702;48.370;10.794;2023-03-13T03:31:53;5.80;99.90
60868;DHT22;46702;48.370;10.794;2023-03-13T03:34:19;5.80;99.90
60868;DHT22;46702;48.370;10.794;2023-03-13T03:36:45;5.80;99.90
60868;DHT22;46702;48.370;10.794;2023-03-13T03:39:11;5.80;99.90
60868;DHT22;46702;48.370;10.794;2023-03-13T03:41:36;5.80;99.90
60868;DHT22;46702;48.370;10.794;2023-03-13T03:44:03;5.90;99.90
60868;DHT22;46702;48.370;10.794;2023-03-13T03:46:28;5.90;99.90
60868;DHT22;46702;48.370;10.794;2023-03-13T03:48:54;5.90;99.90
60868;DHT22;46702;48.370;10.794;2023-03-13T03:51:20;5.90;99.90
60868;DHT22;46702;48.370;10.794;2023-03-13T03:53:46;5.90;99.90
60868;DHT22;46702;48.370;10.794;2023-03-13T03:56:11;5.80;99.90
60868;DHT22;46702;48.370;10.794;2023-03-13T03:58:37;5.80;99.90
60868;DHT22;46702;48.370;10.794;2023-03-13T04:01:02;5.80;99.90
60868;DHT22;46702;48.370;10.794;2023-03-13T04:03:28;5.80;99.90
60868;DHT22;46702;48.370;10.794;2023-03-13T04:05:54;5.80;99.90
60868;DHT22;46702;48.370;10.794;2023-03-13T04:08:21;5.80;99.90
60868;DHT22;46702;48.370;10.794;2023-03-13T04:10:46;5.80;99.90
60868;DHT22;46702;48.370;10.794;2023-03-13T04:13:12;5.80;99.90
60868;DHT22;46702;48.370;10.794;2023-03-13T04:15:39;5.70;99.90
60868;DHT22;46702;48.370;10.794;2023-03-13T04:18:05;5.70;99.90
60868;DHT22;46702;48.370;10.794;2023-03-13T04:20:30;5.70;99.90
60868;DHT22;46702;48.370;10.794;2023-03-13T04:22:56;5.70;99.90
60868;DHT22;46702;48.370;10.794;2023-03-13T04:25:21;5.70;99.90
60868;DHT22;46702;48.370;10.794;2023-03-13T04:27:47;5.70;99.90
60868;DHT22;46702;48.370;10.794;2023-03-13T04:30:13;5.70;99.90
60868;DHT22;46702;48.370;10.794;2023-03-13T04:32:39;5.80;99.90
60868;DHT22;46702;48.370;10.794;2023-03-13T04:35:05;5.80;99.90
60868;DHT22;46702;48.370;10.794;2023-03-13T04:37:30;5.80;99.90
60868;DHT22;46702;48.370;10.794;2023-03-13T04:39:56;5.90;99.90
60868;DHT22;46702;48.370;10.794;2023-03-13T04:42:22;6.10;99.90
60868;DHT22;46702;48.370;10.794;2023-03-13T04:44:48;6.20;99.90
60868;DHT22;46702;48.370;10.794;2023-03-13T04:47:13;6.40;99.90
60868;DHT22;46702;48.370;10.794;2023-03-13T04:49:39;6.50;99.90
60868;DHT22;46702;48.370;10.794;2023-03-13T04:52:05;6.60;99.90
60868;DHT22;46702;48.370;10.794;2023-03-13T04:54:30;6.70;99.90
60868;DHT22;46702;48.370;10.794;2023-03-13T04:56:56;6.70;99.90
60868;DHT22;46702;48.370;10.794;2023-03-13T04:59:22;6.80;99.90
60868;DHT22;46702;48.370;10.794;2023-03-13T05:01:47;6.80;99.90
60868;DHT22;46702;48.370;10.794;2023-03-13T05:04:13;6.90;99.90
60868;DHT22;46702;48.370;10.794;2023-03-13T05:06:39;6.90;99.90
60868;DHT22;46702;48.370;10.794;2023-03-13T05:09:05;6.90;99.90
60868;DHT22;46702;48.370;10.794;2023-03-13T05:11:31;6.90;99.90
60868;DHT22;46702;48.370;10.794;2023-03-13T05:13:57;6.90;99.90
60868;DHT22;46702;48.370;10.794;2023-03-13T05:16:22;6.90;99.90
60868;DHT22;46702;48.370;10.794;2023-03-13T05:18:48;6.90;99.90
60868;DHT22;46702;48.370;10.794;2023-03-13T05:21:13;7.00;99.90
60868;DHT22;46702;48.370;10.794;2023-03-13T05:23:39;7.00;99.90
60868;DHT22;46702;48.370;10.794;2023-03-13T05:26:05;7.00;99.90
60868;DHT22;46702;48.370;10.794;2023-03-13T05:28:30;7.00;99.90
60868;DHT22;46702;48.370;10.794;2023-03-13T05:30:56;7.00;99.90
60868;DHT22;46702;48.370;10.794;2023-03-13T05:33:22;7.10;99.90
60868;DHT22;46702;48.370;10.794;2023-03-13T05:35:47;7.10;99.90
60868;DHT22;46702;48.370;10.794;2023-03-13T05:38:13;7.10;99.90
60868;DHT22;46702;48.370;10.794;2023-03-13T05:40:39;7.10;99.90
60868;DHT22;46702;48.370;10.794;2023-03-13T05:43:05;7.10;99.90
60868;DHT22;46702;48.370;10.794;2023-03-13T05:45:31;7.20;99.90
60868;DHT22;46702;48.370;10.794;2023-03-13T05:47:56;7.20;99.90
60868;DHT22;46702;48.370;10.794;2023-03-13T05:50:25;7.20;99.90
60868;DHT22;46702;48.370;10.794;2023-03-13T05:52:50;7.30;99.90
60868;DHT22;46702;48.370;10.794;2023-03-13T05:55:17;7.30;99.90
60868;DHT22;46702;48.370;10.794;2023-03-13T05:57:47;7.30;99.90
60868;DHT22;46702;48.370;10.794;2023-03-13T06:00:16;7.40;99.90
60868;DHT22;46702;48.370;10.794;2023-03-13T06:02:43;7.40;99.90
60868;DHT22;46702;48.370;10.794;2023-03-13T06:05:09;7.60;99.90
60868;DHT22;46702;48.370;10.794;2023-03-13T06:07:35;7.60;99.90
60868;DHT22;46702;48.370;10.794;2023-03-13T06:10:01;7.80;99.90
60868;DHT22;46702;48.370;10.794;2023-03-13T06:12:26;7.90;99.90
60868;DHT22;46702;48.370;10.794;2023-03-13T06:14:52;7.90;99.90
60868;DHT22;46702;48.370;10.794;2023-03-13T06:17:17;8.00;99.90
60868;DHT22;46702;48.370;10.794;2023-03-13T06:19:44;8.10;99.90
60868;DHT22;46702;48.370;10.794;2023-03-13T06:22:10;8.20;99.90
60868;DHT22;46702;48.370;10.794;2023-03-13T06:24:35;8.30;99.90
60868;DHT22;46702;48.370;10.794;2023-03-13T06:27:01;8.40;99.90
60868;DHT22;46702;48.370;10.794;2023-03-13T06:29:26;8.40;99.90
60868;DHT22;46702;48.370;10.794;2023-03-13T06:31:52;8.40;99.90
60868;DHT22;46702;48.370;10.794;2023-03-13T06:34:18;8.50;99.90
60868;DHT22;46702;48.370;10.794;2023-03-13T06:36:44;8.50;99.90
60868;DHT22;46702;48.370;10.794;2023-03-13T06:39:10;8.70;99.90
60868;DHT22;46702;48.370;10.794;2023-03-13T06:41:37;8.70;99.90
60868;DHT22;46702;48.370;10.794;2023-03-13T06:44:05;8.70;99.90
60868;DHT22;46702;48.370;10.794;2023-03-13T06:46:31;8.70;99.90
60868;DHT22;46702;48.370;10.794;2023-03-13T06:48:57;8.70;99.90
60868;DHT22;46702;48.370;10.794;2023-03-13T06:51:23;8.80;99.90
60868;DHT22;46702;48.370;10.794;2023-03-13T06:53:51;8.90;99.90
60868;DHT22;46702;48.370;10.794;2023-03-13T06:56:17;8.90;99.90
60868;DHT22;46702;48.370;10.794;2023-03-13T06:58:45;8.90;99.90
60868;DHT22;46702;48.370;10.794;2023-03-13T07:01:12;8.90;99.90
60868;DHT22;46702;48.370;10.794;2023-03-13T07:03:39;8.90;99.90
60868;DHT22;46702;48.370;10.794;2023-03-13T07:06:08;9.00;99.90
60868;DHT22;46702;48.370;10.794;2023-03-13T07:08:35;9.00;99.90
60868;DHT22;46702;48.370;10.794;2023-03-13T07:11:08;9.10;99.90
60868;DHT22;46702;48.370;10.794;2023-03-13T07:13:35;9.30;99.90
60868;DHT22;46702;48.370;10.794;2023-03-13T07:16:02;9.40;99.90
60868;DHT22;46702;48.370;10.794;2023-03-13T07:18:29;9.40;99.90
60868;DHT22;46702;48.370;10.794;2023-03-13T07:20:56;9.40;99.90
60868;DHT22;46702;48.370;10.794;2023-03-13T07:23:23;9.50;99.90
60868;DHT22;46702;48.370;10.794;2023-03-13T07:28:19;9.60;99.90
60868;DHT22;46702;48.370;10.794;2023-03-13T07:30:44;9.70;99.90
60868;DHT22;46702;48.370;10.794;2023-03-13T07:33:10;9.70;99.90
60868;DHT22;46702;48.370;10.794;2023-03-13T07:35:36;9.70;99.90
60868;DHT22;46702;48.370;10.794;2023-03-13T07:38:01;9.80;99.90
60868;DHT22;46702;48.370;10.794;2023-03-13T07:40:27;9.70;99.90
60868;DHT22;46702;48.370;10.794;2023-03-13T07:42:52;9.70;99.90
60868;DHT22;46702;48.370;10.794;2023-03-13T07:45:18;9.60;99.90
60868;DHT22;46702;48.370;10.794;2023-03-13T07:47:43;9.60;99.90
60868;DHT22;46702;48.370;10.794;2023-03-13T07:50:09;9.60;99.90
60868;DHT22;46702;48.370;10.794;2023-03-13T07:52:35;9.60;99.90
60868;DHT22;46702;48.370;10.794;2023-03-13T07:55:01;9.70;99.90
60868;DHT22;46702;48.370;10.794;2023-03-13T07:57:26;9.70;99.90
60868;DHT22;46702;48.370;10.794;2023-03-13T07:59:52;9.80;99.90
60868;DHT22;46702;48.370;10.794;2023-03-13T08:02:17;9.90;99.90
60868;DHT22;46702;48.370;10.794;2023-03-13T08:04:43;9.90;99.90
60868;DHT22;46702;48.370;10.794;2023-03-13T08:07:09;10.00;99.90
60868;DHT22;46702;48.370;10.794;2023-03-13T08:09:35;10.00;99.90
60868;DHT22;46702;48.370;10.794;2023-03-13T08:12:01;10.10;99.90
60868;DHT22;46702;48.370;10.794;2023-03-13T08:14:26;10.10;99.90
60868;DHT22;46702;48.370;10.794;2023-03-13T08:16:52;10.30;99.90
60868;DHT22;46702;48.370;10.794;2023-03-13T08:19:18;10.50;99.90
60868;DHT22;46702;48.370;10.794;2023-03-13T08:21:44;10.60;99.90
60868;DHT22;46702;48.370;10.794;2023-03-13T08:24:10;10.60;99.90
60868;DHT22;46702;48.370;10.794;2023-03-13T08:26:39;10.70;99.90
60868;DHT22;46702;48.370;10.794;2023-03-13T08:29:09;10.80;99.90
60868;DHT22;46702;48.370;10.794;2023-03-13T08:31:37;10.80;99.90
60868;DHT22;46702;48.370;10.794;2023-03-13T08:34:03;10.90;99.90
60868;DHT22;46702;48.370;10.794;2023-03-13T08:36:36;11.00;99.90
60868;DHT22;46702;48.370;10.794;2023-03-13T08:39:20;11.10;99.90
60868;DHT22;46702;48.370;10.794;2023-03-13T08:41:45;11.10;99.90
60868;DHT22;46702;48.370;10.794;2023-03-13T08:44:13;11.20;99.90
60868;DHT22;46702;48.370;10.794;2023-03-13T08:46:39;11.30;99.90
60868;DHT22;46702;48.370;10.794;2023-03-13T08:49:06;11.40;99.90
60868;DHT22;46702;48.370;10.794;2023-03-13T08:51:33;11.60;99.90
60868;DHT22;46702;48.370;10.794;2023-03-13T08:54:00;11.80;99.90
60868;DHT22;46702;48.370;10.794;2023-03-13T08:56:27;11.80;99.90
60868;DHT22;46702;48.370;10.794;2023-03-13T08:58:55;12.00;99.90
60868;DHT22;46702;48.370;10.794;2023-03-13T09:01:23;12.10;99.90
60868;DHT22;46702;48.370;10.794;2023-03-13T09:03:49;12.20;99.90
60868;DHT22;46702;48.370;10.794;2023-03-13T09:06:16;12.40;99.90
60868;DHT22;46702;48.370;10.794;2023-03-13T09:08:42;12.50;99.90
60868;DHT22;46702;48.370;10.794;2023-03-13T09:11:11;12.60;99.90
60868;DHT22;46702;48.370;10.794;2023-03-13T09:13:40;12.70;99.90
60868;DHT22;46702;48.370;10.794;2023-03-13T09:16:10;12.90;99.90
60868;DHT22;46702;48.370;10.794;2023-03-13T09:18:37;12.90;99.90
60868;DHT22;46702;48.370;10.794;2023-03-13T09:21:08;13.00;99.90
60868;DHT22;46702;48.370;10.794;2023-03-13T09:23:34;12.90;99.90
60868;DHT22;46702;48.370;10.794;2023-03-13T09:26:00;12.90;99.90
60868;DHT22;46702;48.370;10.794;2023-03-13T09:28:26;12.90;99.90
60868;DHT22;46702;48.370;10.794;2023-03-13T09:30:52;12.90;99.90
60868;DHT22;46702;48.370;10.794;2023-03-13T09:33:19;12.90;99.90
60868;DHT22;46702;48.370;10.794;2023-03-13T09:35:45;13.00;99.90
60868;DHT22;46702;48.370;10.794;2023-03-13T09:38:18;12.90;99.90
60868;DHT22;46702;48.370;10.794;2023-03-13T09:40:47;12.90;99.90
60868;DHT22;46702;48.370;10.794;2023-03-13T09:43:34;13.00;99.90
60868;DHT22;46702;48.370;10.794;2023-03-13T09:46:15;13.10;99.90
60868;DHT22;46702;48.370;10.794;2023-03-13T09:48:45;13.20;99.90
60868;DHT22;46702;48.370;10.794;2023-03-13T09:51:20;13.30;99.90
60868;DHT22;46702;48.370;10.794;2023-03-13T09:56:51;13.70;99.90
60868;DHT22;46702;48.370;10.794;2023-03-13T10:02:34;13.90;99.90
60868;DHT22;46702;48.370;10.794;2023-03-13T10:07:45;14.30;99.90
60868;DHT22;46702;48.370;10.794;2023-03-13T10:10:16;14.50;99.90
60868;DHT22;46702;48.370;10.794;2023-03-13T10:12:47;14.50;99.90
60868;DHT22;46702;48.370;10.794;2023-03-13T10:15:43;14.60;99.90
60868;DHT22;46702;48.370;10.794;2023-03-13T10:18:19;14.60;99.90
60868;DHT22;46702;48.370;10.794;2023-03-13T10:20:50;14.80;99.90
60868;DHT22;46702;48.370;10.794;2023-03-13T10:26:05;14.80;99.90
60868;DHT22;46702;48.370;10.794;2023-03-13T10:28:33;14.90;99.10
60868;DHT22;46702;48.370;10.794;2023-03-13T10:31:07;15.20;99.90
60868;DHT22;46702;48.370;10.794;2023-03-13T10:33:36;15.20;99.60
60868;DHT22;46702;48.370;10.794;2023-03-13T10:36:12;15.30;98.50
60868;DHT22;46702;48.370;10.794;2023-03-13T10:38:52;15.30;99.90
60868;DHT22;46702;48.370;10.794;2023-03-13T10:41:29;15.40;99.10
60868;DHT22;46702;48.370;10.794;2023-03-13T10:44:05;15.60;99.90
60868;DHT22;46702;48.370;10.794;2023-03-13T10:46:33;15.90;97.40
60868;DHT22;46702;48.370;10.794;2023-03-13T10:49:02;15.70;99.90
60868;DHT22;46702;48.370;10.794;2023-03-13T10:51:39;15.60;96.80
60868;DHT22;46702;48.370;10.794;2023-03-13T10:54:25;15.50;98.20
60868;DHT22;46702;48.370;10.794;2023-03-13T10:57:06;15.50;99.90
60868;DHT22;46702;48.370;10.794;2023-03-13T10:59:32;15.50;99.00
60868;DHT22;46702;48.370;10.794;2023-03-13T11:02:12;15.60;98.40
60868;DHT22;46702;48.370;10.794;2023-03-13T11:04:42;15.60;99.00
60868;DHT22;46702;48.370;10.794;2023-03-13T11:07:15;15.50;96.00
60868;DHT22;46702;48.370;10.794;2023-03-13T11:09:41;15.70;99.90
60868;DHT22;46702;48.370;10.794;2023-03-13T11:12:27;15.80;99.90
60868;DHT22;46702;48.370;10.794;2023-03-13T11:14:57;15.80;99.90
60868;DHT22;46702;48.370;10.794;2023-03-13T11:17:39;15.70;98.30
60868;DHT22;46702;48.370;10.794;2023-03-13T11:23:19;15.70;99.90
60868;DHT22;46702;48.370;10.794;2023-03-13T11:31:33;15.90;99.90
60868;DHT22;46702;48.370;10.794;2023-03-13T11:34:26;15.90;99.90
60868;DHT22;46702;48.370;10.794;2023-03-13T11:37:02;16.00;99.50
60868;DHT22;46702;48.370;10.794;2023-03-13T11:45:49;16.30;97.30
60868;DHT22;46702;48.370;10.794;2023-03-13T11:48:21;16.10;96.70
60868;DHT22;46702;48.370;10.794;2023-03-13T11:51:14;16.20;99.70
60868;DHT22;46702;48.370;10.794;2023-03-13T11:56:37;16.40;99.90
60868;DHT22;46702;48.370;10.794;2023-03-13T12:02:20;16.20;97.00
60868;DHT22;46702;48.370;10.794;2023-03-13T12:04:57;16.10;98.20
60868;DHT22;46702;48.370;10.794;2023-03-13T12:07:38;16.30;99.90
60868;DHT22;46702;48.370;10.794;2023-03-13T12:10:15;16.50;99.20
60868;DHT22;46702;48.370;10.794;2023-03-13T12:15:21;16.60;99.90
60868;DHT22;46702;48.370;10.794;2023-03-13T12:20:45;16.60;99.70
60868;DHT22;46702;48.370;10.794;2023-03-13T12:23:19;16.80;97.90
60868;DHT22;46702;48.370;10.794;2023-03-13T12:34:02;16.70;98.00
60868;DHT22;46702;48.370;10.794;2023-03-13T12:36:50;16.80;99.00
60868;DHT22;46702;48.370;10.794;2023-03-13T12:39:30;16.80;96.20
60868;DHT22;46702;48.370;10.794;2023-03-13T12:44:38;16.80;97.20
60868;DHT22;46702;48.370;10.794;2023-03-13T13:03:57;17.20;94.50
60868;DHT22;46702;48.370;10.794;2023-03-13T13:06:24;17.30;95.80
60868;DHT22;46702;48.370;10.794;2023-03-13T13:13:59;17.60;93.00
60868;DHT22;46702;48.370;10.794;2023-03-13T13:16:25;17.60;92.20
60868;DHT22;46702;48.370;10.794;2023-03-13T13:18:52;17.60;90.30
60868;DHT22;46702;48.370;10.794;2023-03-13T13:21:20;17.50;89.00
60868;DHT22;46702;48.370;10.794;2023-03-13T13:23:48;17.60;94.60
60868;DHT22;46702;48.370;10.794;2023-03-13T13:28:59;17.70;91.00
60868;DHT22;46702;48.370;10.794;2023-03-13T13:36:55;17.90;84.90
60868;DHT22;46702;48.370;10.794;2023-03-13T13:45:01;17.40;91.90
60868;DHT22;46702;48.370;10.794;2023-03-13T13:47:28;17.50;92.00
60868;DHT22;46702;48.370;10.794;2023-03-13T13:49:56;17.80;91.90
60868;DHT22;46702;48.370;10.794;2023-03-13T13:52:42;17.90;88.00
60868;DHT22;46702;48.370;10.794;2023-03-13T13:57:47;17.90;90.30
60868;DHT22;46702;48.370;10.794;2023-03-13T14:00:19;17.90;87.40
60868;DHT22;46702;48.370;10.794;2023-03-13T14:02:51;18.00;90.10
60868;DHT22;46702;48.370;10.794;2023-03-13T14:05:23;18.10;92.30
60868;DHT22;46702;48.370;10.794;2023-03-13T14:08:03;18.30;90.60
60868;DHT22;46702;48.370;10.794;2023-03-13T14:10:39;18.40;85.10
60868;DHT22;46702;48.370;10.794;2023-03-13T14:13:17;18.40;86.00
60868;DHT22;46702;48.370;10.794;2023-03-13T14:15:46;18.40;85.20
60868;DHT22;46702;48.370;10.794;2023-03-13T14:18:28;18.40;84.90
60868;DHT22;46702;48.370;10.794;2023-03-13T14:20:58;18.40;83.20
60868;DHT22;46702;48.370;10.794;2023-03-13T14:28:45;18.40;82.70
60868;DHT22;46702;48.370;10.794;2023-03-13T14:31:21;18.40;82.90
60868;DHT22;46702;48.370;10.794;2023-03-13T14:33:48;18.50;83.30
60868;DHT22;46702;48.370;10.794;2023-03-13T14:36:13;18.70;82.00
60868;DHT22;46702;48.370;10.794;2023-03-13T14:38:39;18.60;79.30
60868;DHT22;46702;48.370;10.794;2023-03-13T14:41:29;18.50;80.70
60868;DHT22;46702;48.370;10.794;2023-03-13T14:44:13;18.50;79.00
60868;DHT22;46702;48.370;10.794;2023-03-13T14:46:41;18.50;78.30
60868;DHT22;46702;48.370;10.794;2023-03-13T14:49:19;18.50;81.70
60868;DHT22;46702;48.370;10.794;2023-03-13T14:51:49;18.40;81.70
60868;DHT22;46702;48.370;10.794;2023-03-13T14:54:25;18.30;82.10
60868;DHT22;46702;48.370;10.794;2023-03-13T14:57:02;18.30;83.50
60868;DHT22;46702;48.370;10.794;2023-03-13T14:59:28;18.30;83.50
60868;DHT22;46702;48.370;10.794;2023-03-13T15:02:20;18.20;83.90
60868;DHT22;46702;48.370;10.794;2023-03-13T15:07:14;18.30;85.40
60868;DHT22;46702;48.370;10.794;2023-03-13T15:09:42;18.40;85.30
60868;DHT22;46702;48.370;10.794;2023-03-13T15:12:21;18.40;85.30
60868;DHT22;46702;48.370;10.794;2023-03-13T15:14:49;18.50;83.40
60868;DHT22;46702;48.370;10.794;2023-03-13T15:19:41;18.50;86.70
60868;DHT22;46702;48.370;10.794;2023-03-13T15:22:15;18.50;86.30
60868;DHT22;46702;48.370;10.794;2023-03-13T15:24:42;18.40;84.20
60868;DHT22;46702;48.370;10.794;2023-03-13T15:27:18;18.40;86.00
60868;DHT22;46702;48.370;10.794;2023-03-13T15:29:45;18.30;79.90
60868;DHT22;46702;48.370;10.794;2023-03-13T15:32:25;18.20;82.80
60868;DHT22;46702;48.370;10.794;2023-03-13T15:34:51;18.20;82.30
60868;DHT22;46702;48.370;10.794;2023-03-13T15:37:17;18.10;84.30
60868;DHT22;46702;48.370;10.794;2023-03-13T15:39:44;18.10;84.10
60868;DHT22;46702;48.370;10.794;2023-03-13T15:42:09;18.10;84.90
60868;DHT22;46702;48.370;10.794;2023-03-13T15:44:35;18.10;85.40
60868;DHT22;46702;48.370;10.794;2023-03-13T15:47:01;18.10;85.10
60868;DHT22;46702;48.370;10.794;2023-03-13T15:49:26;18.10;83.30
60868;DHT22;46702;48.370;10.794;2023-03-13T15:51:52;18.20;79.70
60868;DHT22;46702;48.370;10.794;2023-03-13T15:54:18;18.30;77.60
60868;DHT22;46702;48.370;10.794;2023-03-13T15:56:43;18.40;74.20
60868;DHT22;46702;48.370;10.794;2023-03-13T15:59:11;18.30;79.20
60868;DHT22;46702;48.370;10.794;2023-03-13T16:01:37;18.40;79.10
60868;DHT22;46702;48.370;10.794;2023-03-13T16:04:03;18.30;75.60
60868;DHT22;46702;48.370;10.794;2023-03-13T16:06:29;18.30;74.10
60868;DHT22;46702;48.370;10.794;2023-03-13T16:09:02;18.20;75.10
60868;DHT22;46702;48.370;10.794;2023-03-13T16:11:30;18.20;73.80
60868;DHT22;46702;48.370;10.794;2023-03-13T16:13:56;18.30;76.50
60868;DHT22;46702;48.370;10.794;2023-03-13T16:16:25;18.20;73.80
60868;DHT22;46702;48.370;10.794;2023-03-13T16:18:53;18.20;73.70
60868;DHT22;46702;48.370;10.794;2023-03-13T16:21:28;18.10;75.00
60868;DHT22;46702;48.370;10.794;2023-03-13T16:23:54;18.00;75.80
60868;DHT22;46702;48.370;10.794;2023-03-13T16:26:23;17.90;77.90
60868;DHT22;46702;48.370;10.794;2023-03-13T16:28:49;17.90;73.10
60868;DHT22;46702;48.370;10.794;2023-03-13T16:33:50;17.90;77.50
60868;DHT22;46702;48.370;10.794;2023-03-13T16:36:18;17.90;72.00
60868;DHT22;46702;48.370;10.794;2023-03-13T16:38:45;17.90;74.50
60868;DHT22;46702;48.370;10.794;2023-03-13T16:41:19;17.90;71.90
60868;DHT22;46702;48.370;10.794;2023-03-13T16:43:45;17.90;74.10
60868;DHT22;46702;48.370;10.794;2023-03-13T16:46:23;17.70;74.40
60868;DHT22;46702;48.370;10.794;2023-03-13T16:48:51;17.60;70.60
60868;DHT22;46702;48.370;10.794;2023-03-13T16:51:22;17.60;70.30
60868;DHT22;46702;48.370;10.794;2023-03-13T16:53:50;17.60;72.60
60868;DHT22;46702;48.370;10.794;2023-03-13T16:58:47;17.50;74.00
60868;DHT22;46702;48.370;10.794;2023-03-13T17:01:13;17.30;76.10
60868;DHT22;46702;48.370;10.794;2023-03-13T17:03:39;17.20;72.90
60868;DHT22;46702;48.370;10.794;2023-03-13T17:06:04;17.10;73.70
60868;DHT22;46702;48.370;10.794;2023-03-13T17:08:30;17.00;75.20
60868;DHT22;46702;48.370;10.794;2023-03-13T17:10:56;16.90;77.70
60868;DHT22;46702;48.370;10.794;2023-03-13T17:13:21;16.80;75.40
60868;DHT22;46702;48.370;10.794;2023-03-13T17:15:48;16.70;77.30
60868;DHT22;46702;48.370;10.794;2023-03-13T17:18:14;16.70;79.40
60868;DHT22;46702;48.370;10.794;2023-03-13T17:20:40;16.60;81.40
60868;DHT22;46702;48.370;10.794;2023-03-13T17:23:06;16.50;80.10
60868;DHT22;46702;48.370;10.794;2023-03-13T17:25:32;16.40;87.60
60868;DHT22;46702;48.370;10.794;2023-03-13T17:27:57;16.30;83.40